createdAt,value
2016-09-26T00:00:08.532Z,0
2016-09-26T00:01:08.601Z,0
2016-09-26T00:02:08.650Z,0
2016-09-26T00:03:08.699Z,0
2016-09-26T00:04:08.765Z,0
2016-09-26T00:05:08.814Z,0
2016-09-26T00:06:08.877Z,0
2016-09-26T00:07:08.913Z,0
2016-09-26T00:08:08.962Z,0
2016-09-26T00:09:09.029Z,0
2016-09-26T00:10:09.093Z,0
2016-09-26T00:11:09.159Z,0
2016-09-26T00:12:09.197Z,0
2016-09-26T00:13:09.259Z,0
2016-09-26T00:14:09.313Z,0
2016-09-26T00:15:09.370Z,0
2016-09-26T00:16:09.417Z,0
2016-09-26T00:17:09.496Z,0
2016-09-26T00:18:09.524Z,0
2016-09-26T00:19:09.587Z,0
2016-09-26T00:20:09.642Z,0
2016-09-26T00:21:09.706Z,0
2016-09-26T00:22:09.740Z,0
2016-09-26T00:23:10.009Z,0
2016-09-26T00:24:10.048Z,0
2016-09-26T00:25:09.903Z,0
2016-09-26T00:26:09.981Z,0
2016-09-26T00:27:10.022Z,0
2016-09-26T00:28:10.086Z,0
2016-09-26T00:29:10.151Z,0
2016-09-26T00:30:10.202Z,0
2016-09-26T00:31:10.271Z,0
2016-09-26T00:32:10.310Z,0
2016-09-26T00:33:10.375Z,0
2016-09-26T00:34:10.416Z,0
2016-09-26T00:35:10.473Z,0
2016-09-26T00:36:10.522Z,0
2016-09-26T00:37:10.582Z,0
2016-09-26T00:38:10.649Z,0
2016-09-26T00:39:10.686Z,0
2016-09-26T00:40:10.765Z,0
2016-09-26T00:41:10.797Z,0
2016-09-26T00:42:10.845Z,0
2016-09-26T00:43:10.923Z,0
2016-09-26T00:44:10.979Z,0
2016-09-26T00:45:11.046Z,0
2016-09-26T00:46:11.084Z,0
2016-09-26T00:47:11.144Z,0
2016-09-26T00:48:11.201Z,0
2016-09-26T00:49:11.249Z,0
2016-09-26T00:50:11.323Z,0
2016-09-26T00:51:11.368Z,0
2016-09-26T00:52:11.416Z,0
2016-09-26T00:53:11.477Z,0
2016-09-26T00:54:11.753Z,0
2016-09-26T00:55:11.789Z,0
2016-09-26T00:56:11.653Z,0
2016-09-26T00:57:11.893Z,0
2016-09-26T00:58:11.751Z,0
2016-09-26T00:59:11.824Z,0
2016-09-26T01:00:11.885Z,0
2016-09-26T01:01:11.928Z,0
2016-09-26T01:02:11.955Z,0
2016-09-26T01:03:12.045Z,0
2016-09-26T01:04:12.068Z,0
2016-09-26T01:05:12.155Z,0
2016-09-26T01:06:12.213Z,0
2016-09-26T01:07:12.250Z,0
2016-09-26T01:08:12.317Z,0
2016-09-26T01:09:12.371Z,0
2016-09-26T01:10:12.421Z,0
2016-09-26T01:11:12.469Z,0
2016-09-26T01:12:12.547Z,0
2016-09-26T01:13:12.575Z,0
2016-09-26T01:14:12.626Z,0
2016-09-26T01:15:12.707Z,0
2016-09-26T01:16:12.750Z,0
2016-09-26T01:17:12.804Z,0
2016-09-26T01:18:12.859Z,0
2016-09-26T01:19:12.935Z,0
2016-09-26T01:20:12.976Z,0
2016-09-26T01:21:13.029Z,0
2016-09-26T01:22:13.101Z,0
2016-09-26T01:23:13.154Z,0
2016-09-26T01:24:13.202Z,0
2016-09-26T01:25:13.253Z,0
2016-09-26T01:26:13.509Z,0
2016-09-26T01:27:13.351Z,0
2016-09-26T01:28:13.413Z,0
2016-09-26T01:29:13.465Z,0
2016-09-26T01:30:13.511Z,0
2016-09-26T01:31:13.600Z,0
2016-09-26T01:32:13.642Z,0
2016-09-26T01:33:13.691Z,0
2016-09-26T01:34:13.750Z,0
2016-09-26T01:35:13.800Z,0
2016-09-26T01:36:13.860Z,0
2016-09-26T01:37:13.922Z,0
2016-09-26T01:38:13.957Z,0
2016-09-26T01:39:14.008Z,0
2016-09-26T01:40:14.065Z,0
2016-09-26T01:41:14.141Z,0
2016-09-26T01:42:14.192Z,0
2016-09-26T01:43:14.242Z,0
2016-09-26T01:44:14.295Z,0
2016-09-26T01:45:14.361Z,0
2016-09-26T01:46:14.416Z,0
2016-09-26T01:47:14.471Z,0
2016-09-26T01:48:14.542Z,0
2016-09-26T01:49:14.576Z,0
2016-09-26T01:50:14.644Z,0
2016-09-26T01:51:14.708Z,0
2016-09-26T01:52:14.742Z,0
2016-09-26T01:53:14.827Z,0
2016-09-26T01:54:14.869Z,0
2016-09-26T01:55:14.926Z,0
2016-09-26T01:56:14.964Z,0
2016-09-26T01:57:15.246Z,0
2016-09-26T01:58:15.086Z,0
2016-09-26T01:59:15.152Z,0
2016-09-26T02:00:15.184Z,0
2016-09-26T02:01:15.242Z,0
2016-09-26T02:02:15.309Z,0
2016-09-26T02:03:15.561Z,0
2016-09-26T02:04:15.407Z,0
2016-09-26T02:05:15.449Z,0
2016-09-26T02:06:15.538Z,0
2016-09-26T02:07:15.588Z,0
2016-09-26T02:08:15.628Z,0
2016-09-26T02:09:15.708Z,0
2016-09-26T02:10:15.749Z,0
2016-09-26T02:11:15.795Z,0
2016-09-26T02:12:15.871Z,0
2016-09-26T02:13:15.918Z,0
2016-09-26T02:14:15.962Z,0
2016-09-26T02:15:16.028Z,0
2016-09-26T02:16:16.058Z,0
2016-09-26T02:17:16.430Z,0
2016-09-26T02:18:16.184Z,0
2016-09-26T02:19:16.241Z,0
2016-09-26T02:20:16.304Z,0
2016-09-26T02:21:16.370Z,0
2016-09-26T02:22:16.418Z,0
2016-09-26T02:23:16.469Z,0
2016-09-26T02:24:16.518Z,0
2016-09-26T02:25:16.883Z,0
2016-09-26T02:26:16.649Z,0
2016-09-26T02:27:16.689Z,0
2016-09-26T02:28:16.725Z,0
2016-09-26T02:29:16.780Z,0
2016-09-26T02:30:16.844Z,0
2016-09-26T02:31:16.909Z,0
2016-09-26T02:32:16.961Z,0
2016-09-26T02:33:17.007Z,0
2016-09-26T02:34:17.084Z,0
2016-09-26T02:35:17.438Z,0
2016-09-26T02:36:17.170Z,0
2016-09-26T02:37:17.244Z,0
2016-09-26T02:38:17.315Z,0
2016-09-26T02:39:17.361Z,0
2016-09-26T02:40:17.412Z,0
2016-09-26T02:41:17.480Z,0
2016-09-26T02:42:17.521Z,0
2016-09-26T02:43:17.579Z,0
2016-09-26T02:44:17.634Z,0
2016-09-26T02:45:17.690Z,0
2016-09-26T02:46:17.753Z,0
2016-09-26T02:47:17.804Z,0
2016-09-26T02:48:17.839Z,0
2016-09-26T02:49:17.906Z,0
2016-09-26T02:50:17.961Z,0
2016-09-26T02:51:18.016Z,0
2016-09-26T02:52:18.069Z,0
2016-09-26T02:53:18.147Z,0
2016-09-26T02:54:18.188Z,0
2016-09-26T02:55:18.236Z,0
2016-09-26T02:56:18.315Z,0
2016-09-26T02:57:18.355Z,0
2016-09-26T02:58:18.616Z,0
2016-09-26T02:59:18.664Z,0
2016-09-26T03:00:18.500Z,0
2016-09-26T03:01:18.579Z,0
2016-09-26T03:02:18.640Z,0
2016-09-26T03:03:18.868Z,0
2016-09-26T03:04:18.734Z,0
2016-09-26T03:05:18.801Z,0
2016-09-26T03:06:18.871Z,0
2016-09-26T03:07:18.906Z,0
2016-09-26T03:08:18.959Z,0
2016-09-26T03:09:19.037Z,0
2016-09-26T03:10:19.070Z,0
2016-09-26T03:11:19.112Z,0
2016-09-26T03:12:19.178Z,0
2016-09-26T03:13:19.231Z,0
2016-09-26T03:14:19.313Z,0
2016-09-26T03:15:19.359Z,0
2016-09-26T03:16:19.410Z,0
2016-09-26T03:17:19.462Z,0
2016-09-26T03:18:19.528Z,0
2016-09-26T03:19:19.575Z,0
2016-09-26T03:20:19.637Z,0
2016-09-26T03:21:19.680Z,0
2016-09-26T03:22:19.722Z,0
2016-09-26T03:23:19.785Z,0
2016-09-26T03:24:19.852Z,0
2016-09-26T03:25:19.908Z,0
2016-09-26T03:26:19.959Z,0
2016-09-26T03:27:20.013Z,0
2016-09-26T03:28:20.081Z,0
2016-09-26T03:29:20.115Z,0
2016-09-26T03:30:20.180Z,0
2016-09-26T03:31:20.228Z,0
2016-09-26T03:32:20.277Z,0
2016-09-26T03:33:20.346Z,0
2016-09-26T03:34:20.422Z,0
2016-09-26T03:35:20.468Z,0
2016-09-26T03:36:20.833Z,0
2016-09-26T03:37:20.561Z,0
2016-09-26T03:38:20.623Z,0
2016-09-26T03:39:20.674Z,0
2016-09-26T03:40:20.770Z,0
2016-09-26T03:41:20.782Z,0
2016-09-26T03:42:20.843Z,0
2016-09-26T03:43:20.922Z,0
2016-09-26T03:44:20.979Z,0
2016-09-26T03:45:21.030Z,0
2016-09-26T03:46:21.073Z,0
2016-09-26T03:47:21.145Z,0
2016-09-26T03:48:21.186Z,0
2016-09-26T03:49:21.537Z,0
2016-09-26T03:50:21.584Z,0
2016-09-26T03:51:21.673Z,0
2016-09-26T03:52:21.420Z,0
2016-09-26T03:53:21.471Z,0
2016-09-26T03:54:21.502Z,0
2016-09-26T03:55:21.567Z,0
2016-09-26T03:56:21.617Z,0
2016-09-26T03:57:21.691Z,0
2016-09-26T03:58:21.736Z,0
2016-09-26T03:59:21.799Z,0
2016-09-26T04:00:21.854Z,0
2016-09-26T04:01:21.908Z,0
2016-09-26T04:02:22.249Z,0
2016-09-26T04:03:22.026Z,0
2016-09-26T04:04:22.067Z,0
2016-09-26T04:05:22.134Z,0
2016-09-26T04:06:22.177Z,0
2016-09-26T04:07:22.239Z,0
2016-09-26T04:08:22.309Z,0
2016-09-26T04:09:22.363Z,0
2016-09-26T04:10:22.405Z,0
2016-09-26T04:11:22.462Z,0
2016-09-26T04:12:22.521Z,0
2016-09-26T04:13:22.866Z,0
2016-09-26T04:14:22.640Z,0
2016-09-26T04:15:22.684Z,0
2016-09-26T04:16:22.744Z,0
2016-09-26T04:17:22.999Z,0
2016-09-26T04:18:22.829Z,0
2016-09-26T04:19:22.925Z,0
2016-09-26T04:20:22.973Z,0
2016-09-26T04:21:23.031Z,0
2016-09-26T04:22:23.064Z,0
2016-09-26T04:23:23.105Z,0
2016-09-26T04:24:23.185Z,0
2016-09-26T04:25:23.230Z,0
2016-09-26T04:26:23.294Z,0
2016-09-26T04:27:23.329Z,0
2016-09-26T04:28:23.398Z,0
2016-09-26T04:29:23.436Z,0
2016-09-26T04:30:23.501Z,0
2016-09-26T04:31:23.568Z,0
2016-09-26T04:32:23.934Z,0
2016-09-26T04:33:23.675Z,0
2016-09-26T04:34:23.729Z,0
2016-09-26T04:35:23.786Z,0
2016-09-26T04:36:23.837Z,0
2016-09-26T04:37:23.905Z,0
2016-09-26T04:38:24.245Z,0
2016-09-26T04:39:24.022Z,0
2016-09-26T04:40:24.065Z,0
2016-09-26T04:41:24.110Z,0
2016-09-26T04:42:24.199Z,0
2016-09-26T04:43:24.250Z,0
2016-09-26T04:44:24.297Z,0
2016-09-26T04:45:24.348Z,0
2016-09-26T04:46:24.396Z,0
2016-09-26T04:47:24.765Z,0
2016-09-26T04:48:24.512Z,0
2016-09-26T04:49:24.546Z,0
2016-09-26T04:50:24.616Z,0
2016-09-26T04:51:24.674Z,0
2016-09-26T04:52:24.747Z,0
2016-09-26T04:53:24.798Z,0
2016-09-26T04:54:24.839Z,0
2016-09-26T04:55:24.898Z,0
2016-09-26T04:56:24.950Z,0
2016-09-26T04:57:25.012Z,0
2016-09-26T04:58:25.049Z,0
2016-09-26T04:59:25.122Z,4
2016-09-26T05:00:25.493Z,4
2016-09-26T05:01:25.229Z,4
2016-09-26T05:02:25.290Z,4
2016-09-26T05:03:25.358Z,4
2016-09-26T05:04:25.402Z,4
2016-09-26T05:05:25.450Z,4
2016-09-26T05:06:25.496Z,4
2016-09-26T05:07:25.574Z,4
2016-09-26T05:08:25.636Z,8
2016-09-26T05:09:25.672Z,8
2016-09-26T05:10:25.739Z,8
2016-09-26T05:11:25.804Z,4
2016-09-26T05:12:25.844Z,8
2016-09-26T05:13:25.887Z,8
2016-09-26T05:14:25.955Z,12
2016-09-26T05:15:26.002Z,8
2016-09-26T05:16:26.052Z,8
2016-09-26T05:17:26.116Z,12
2016-09-26T05:18:26.185Z,16
2016-09-26T05:19:26.239Z,16
2016-09-26T05:20:26.296Z,16
2016-09-26T05:21:26.357Z,16
2016-09-26T05:22:26.384Z,16
2016-09-26T05:23:26.439Z,20
2016-09-26T05:24:26.518Z,20
2016-09-26T05:25:26.560Z,20
2016-09-26T05:26:26.620Z,20
2016-09-26T05:27:26.662Z,24
2016-09-26T05:28:26.740Z,28
2016-09-26T05:29:26.795Z,32
2016-09-26T05:30:26.833Z,28
2016-09-26T05:31:26.890Z,28
2016-09-26T05:32:26.954Z,28
2016-09-26T05:33:26.995Z,32
2016-09-26T05:34:27.063Z,32
2016-09-26T05:35:27.128Z,28
2016-09-26T05:36:27.184Z,32
2016-09-26T05:37:27.216Z,36
2016-09-26T05:38:27.280Z,44
2016-09-26T05:39:27.335Z,48
2016-09-26T05:40:27.400Z,48
2016-09-26T05:41:27.455Z,48
2016-09-26T05:42:27.503Z,44
2016-09-26T05:43:27.572Z,44
2016-09-26T05:44:27.614Z,52
2016-09-26T05:45:27.688Z,56
2016-09-26T05:46:27.717Z,56
2016-09-26T05:47:27.786Z,60
2016-09-26T05:48:27.827Z,68
2016-09-26T05:49:27.901Z,76
2016-09-26T05:50:27.939Z,80
2016-09-26T05:51:28.004Z,92
2016-09-26T05:52:28.041Z,84
2016-09-26T05:53:28.127Z,80
2016-09-26T05:54:28.375Z,92
2016-09-26T05:55:28.205Z,96
2016-09-26T05:56:28.305Z,84
2016-09-26T05:57:28.354Z,88
2016-09-26T05:58:28.385Z,108
2016-09-26T05:59:28.460Z,116
2016-09-26T06:00:28.513Z,128
2016-09-26T06:01:29.176Z,132
2016-09-26T06:02:28.633Z,140
2016-09-26T06:03:28.682Z,172
2016-09-26T06:04:28.733Z,164
2016-09-26T06:05:28.762Z,136
2016-09-26T06:06:28.841Z,120
2016-09-26T06:07:28.897Z,124
2016-09-26T06:08:28.941Z,140
2016-09-26T06:09:29.005Z,144
2016-09-26T06:10:29.077Z,124
2016-09-26T06:11:29.120Z,116
2016-09-26T06:12:29.167Z,116
2016-09-26T06:13:29.222Z,128
2016-09-26T06:14:29.285Z,172
2016-09-26T06:15:29.335Z,252
2016-09-26T06:16:29.391Z,300
2016-09-26T06:17:29.441Z,312
2016-09-26T06:18:29.488Z,308
2016-09-26T06:19:29.555Z,292
2016-09-26T06:20:29.605Z,220
2016-09-26T06:21:29.651Z,216
2016-09-26T06:22:29.751Z,224
2016-09-26T06:23:29.774Z,268
2016-09-26T06:24:29.823Z,292
2016-09-26T06:25:29.897Z,300
2016-09-26T06:26:29.954Z,368
2016-09-26T06:27:29.996Z,332
2016-09-26T06:28:30.060Z,328
2016-09-26T06:29:30.122Z,288
2016-09-26T06:30:30.153Z,256
2016-09-26T06:31:30.229Z,356
2016-09-26T06:32:30.286Z,440
2016-09-26T06:33:30.339Z,476
2016-09-26T06:34:30.388Z,540
2016-09-26T06:35:30.438Z,516
2016-09-26T06:36:30.517Z,504
2016-09-26T06:37:30.567Z,700
2016-09-26T06:38:30.613Z,936
2016-09-26T06:39:30.668Z,752
2016-09-26T06:40:30.744Z,944
2016-09-26T06:41:30.778Z,836
2016-09-26T06:42:30.844Z,888
2016-09-26T06:43:30.900Z,1040
2016-09-26T06:44:30.963Z,1080
2016-09-26T06:45:30.995Z,1188
2016-09-26T06:46:31.074Z,1184
2016-09-26T06:47:31.129Z,1020
2016-09-26T06:48:31.173Z,872
2016-09-26T06:49:31.220Z,840
2016-09-26T06:50:31.273Z,872
2016-09-26T06:51:31.339Z,872
2016-09-26T06:52:31.395Z,928
2016-09-26T06:53:31.456Z,768
2016-09-26T06:54:31.510Z,1344
2016-09-26T06:55:31.563Z,1112
2016-09-26T06:56:31.609Z,1040
2016-09-26T06:57:31.669Z,708
2016-09-26T06:58:31.734Z,1172
2016-09-26T06:59:31.791Z,1512
2016-09-26T07:00:31.844Z,1480
2016-09-26T07:01:31.888Z,1300
2016-09-26T07:02:31.938Z,944
2016-09-26T07:03:32.014Z,1452
2016-09-26T07:04:32.059Z,1240
2016-09-26T07:05:32.127Z,1236
2016-09-26T07:06:32.182Z,1492
2016-09-26T07:07:32.221Z,1224
2016-09-26T07:08:32.278Z,1624
2016-09-26T07:09:32.369Z,1516
2016-09-26T07:10:32.397Z,1596
2016-09-26T07:11:32.453Z,1456
2016-09-26T07:12:32.517Z,2388
2016-09-26T07:13:32.565Z,1688
2016-09-26T07:14:32.628Z,1908
2016-09-26T07:15:32.683Z,1644
2016-09-26T07:16:32.723Z,1420
2016-09-26T07:17:32.791Z,1392
2016-09-26T07:18:32.830Z,1396
2016-09-26T07:19:33.234Z,1456
2016-09-26T07:20:32.966Z,1516
2016-09-26T07:21:33.004Z,1636
2016-09-26T07:22:33.077Z,1792
2016-09-26T07:23:33.147Z,1952
2016-09-26T07:24:33.199Z,2240
2016-09-26T07:25:33.251Z,2616
2016-09-26T07:26:33.299Z,3128
2016-09-26T07:27:33.342Z,12424
2016-09-26T07:28:33.413Z,15592
2016-09-26T07:29:33.462Z,8020
2016-09-26T07:30:33.516Z,39360
2016-09-26T07:31:33.580Z,30304
2016-09-26T07:32:33.639Z,20064
2016-09-26T07:33:33.692Z,45088
2016-09-26T07:34:33.758Z,37728
2016-09-26T07:35:33.802Z,43264
2016-09-26T07:36:33.855Z,5888
2016-09-26T07:37:33.915Z,43360
2016-09-26T07:38:33.977Z,43392
2016-09-26T07:39:34.042Z,43680
2016-09-26T07:40:34.090Z,31136
2016-09-26T07:41:34.156Z,46592
2016-09-26T07:42:34.189Z,46368
2016-09-26T07:43:34.237Z,46016
2016-09-26T07:44:34.304Z,45888
2016-09-26T07:45:34.357Z,45376
2016-09-26T07:46:34.431Z,44640
2016-09-26T07:47:34.482Z,46464
2016-09-26T07:48:34.533Z,38688
2016-09-26T07:49:34.609Z,42688
2016-09-26T07:50:34.639Z,42592
2016-09-26T07:51:34.787Z,35264
2016-09-26T07:52:34.773Z,31584
2016-09-26T07:53:34.822Z,44320
2016-09-26T07:54:34.883Z,44704
2016-09-26T07:55:34.926Z,44608
2016-09-26T07:56:35.007Z,43072
2016-09-26T07:57:35.049Z,45888
2016-09-26T07:58:35.094Z,45088
2016-09-26T07:59:35.149Z,35232
2016-09-26T08:00:35.214Z,48064
2016-09-26T08:01:35.250Z,13652
2016-09-26T08:02:35.343Z,49888
2016-09-26T08:03:35.388Z,48608
2016-09-26T08:04:35.422Z,50176
2016-09-26T08:05:35.477Z,53664
2016-09-26T08:06:35.537Z,55072
2016-09-26T08:07:35.619Z,53600
2016-09-26T08:08:35.667Z,53536
2016-09-26T08:09:35.713Z,53408
2016-09-26T08:10:36.083Z,53376
2016-09-26T08:11:35.818Z,52928
2016-09-26T08:12:35.905Z,48992
2016-09-26T08:13:35.942Z,44032
2016-09-26T08:14:35.992Z,45920
2016-09-26T08:15:36.071Z,47872
2016-09-26T08:16:36.106Z,42720
2016-09-26T08:17:36.179Z,42368
2016-09-26T08:18:36.231Z,43680
2016-09-26T08:19:36.301Z,47520
2016-09-26T08:20:36.324Z,48800
2016-09-26T08:21:36.708Z,41760
2016-09-26T08:22:36.475Z,21056
2016-09-26T08:23:36.522Z,7108
2016-09-26T08:24:36.557Z,5740
2016-09-26T08:25:36.621Z,4868
2016-09-26T08:26:36.699Z,4356
2016-09-26T08:27:36.728Z,4016
2016-09-26T08:28:36.784Z,3660
2016-09-26T08:29:36.835Z,3340
2016-09-26T08:30:36.906Z,3052
2016-09-26T08:31:36.982Z,2784
2016-09-26T08:32:37.038Z,2580
2016-09-26T08:33:37.077Z,2432
2016-09-26T08:34:37.125Z,2352
2016-09-26T08:35:37.191Z,2248
2016-09-26T08:36:37.252Z,2184
2016-09-26T08:37:37.297Z,2136
2016-09-26T08:38:37.365Z,2080
2016-09-26T08:39:37.399Z,2040
2016-09-26T08:40:37.480Z,2012
2016-09-26T08:41:37.524Z,1988
2016-09-26T08:42:37.568Z,1972
2016-09-26T08:43:37.649Z,1964
2016-09-26T08:44:37.694Z,1952
2016-09-26T08:45:37.776Z,1908
2016-09-26T08:46:37.819Z,1900
2016-09-26T08:47:37.896Z,1872
2016-09-26T08:48:37.940Z,1856
2016-09-26T08:49:37.981Z,1840
2016-09-26T08:50:38.030Z,1832
2016-09-26T08:51:38.115Z,1808
2016-09-26T08:52:38.160Z,1792
2016-09-26T08:53:38.223Z,1768
2016-09-26T08:54:38.265Z,1756
2016-09-26T08:55:38.310Z,1744
2016-09-26T08:56:38.384Z,1716
2016-09-26T08:57:38.469Z,1716
2016-09-26T08:58:38.490Z,1688
2016-09-26T08:59:38.554Z,1688
2016-09-26T09:00:38.605Z,1672
2016-09-26T09:01:38.665Z,1660
2016-09-26T09:02:38.724Z,1644
2016-09-26T09:03:38.780Z,1632
2016-09-26T09:04:38.827Z,1620
2016-09-26T09:05:38.908Z,1608
2016-09-26T09:06:38.949Z,1612
2016-09-26T09:07:38.991Z,1604
2016-09-26T09:08:39.056Z,1592
2016-09-26T09:09:39.134Z,1592
2016-09-26T09:10:39.170Z,1592
2016-09-26T09:11:39.233Z,1564
2016-09-26T09:12:39.302Z,1544
2016-09-26T09:13:39.353Z,1552
2016-09-26T09:14:39.402Z,1544
2016-09-26T09:15:39.462Z,1532
2016-09-26T09:16:39.503Z,1532
2016-09-26T09:17:39.551Z,1520
2016-09-26T09:18:39.633Z,1516
2016-09-26T09:19:39.669Z,1504
2016-09-26T09:20:39.740Z,1500
2016-09-26T09:21:39.777Z,1496
2016-09-26T09:22:39.863Z,1476
2016-09-26T09:23:39.914Z,1476
2016-09-26T09:24:39.946Z,1484
2016-09-26T09:25:40.018Z,1452
2016-09-26T09:26:40.069Z,1452
2016-09-26T09:27:40.142Z,1456
2016-09-26T09:28:40.182Z,1448
2016-09-26T09:29:40.223Z,1448
2016-09-26T09:30:40.317Z,1452
2016-09-26T09:31:40.354Z,1448
2016-09-26T09:32:40.392Z,1448
2016-09-26T09:33:40.675Z,1452
2016-09-26T09:34:40.528Z,1440
2016-09-26T09:35:40.589Z,1444
2016-09-26T09:36:40.629Z,1452
2016-09-26T09:37:40.695Z,1448
2016-09-26T09:38:40.739Z,1448
2016-09-26T09:39:40.803Z,1452
2016-09-26T09:40:40.870Z,1444
2016-09-26T09:41:40.937Z,1448
2016-09-26T09:42:40.963Z,1448
2016-09-26T09:43:41.198Z,1448
2016-09-26T09:44:41.083Z,1452
2016-09-26T09:45:41.139Z,1452
2016-09-26T09:46:41.219Z,1448
2016-09-26T09:47:41.281Z,1448
2016-09-26T09:48:41.602Z,1456
2016-09-26T09:49:41.360Z,1456
2016-09-26T09:50:41.440Z,1456
2016-09-26T09:51:41.485Z,1468
2016-09-26T09:52:41.549Z,1464
2016-09-26T09:53:41.598Z,1468
2016-09-26T09:54:41.654Z,1472
2016-09-26T09:55:41.712Z,1464
2016-09-26T09:56:41.767Z,1476
2016-09-26T09:57:41.817Z,1464
2016-09-26T09:58:41.870Z,1484
2016-09-26T09:59:41.948Z,1488
2016-09-26T10:00:42.004Z,1484
2016-09-26T10:01:42.027Z,1488
2016-09-26T10:02:42.104Z,1496
2016-09-26T10:03:42.169Z,1496
2016-09-26T10:04:42.216Z,1512
2016-09-26T10:05:42.264Z,1512
2016-09-26T10:06:42.337Z,1508
2016-09-26T10:07:42.373Z,1512
2016-09-26T10:08:42.433Z,1520
2016-09-26T10:09:42.507Z,1528
2016-09-26T10:10:42.546Z,1532
2016-09-26T10:11:42.603Z,1540
2016-09-26T10:12:42.653Z,1532
2016-09-26T10:13:42.711Z,1528
2016-09-26T10:14:42.797Z,1536
2016-09-26T10:15:43.161Z,1548
2016-09-26T10:16:43.492Z,1628
2016-09-26T10:17:42.926Z,1604
2016-09-26T10:18:43.019Z,1664
2016-09-26T10:19:43.073Z,1592
2016-09-26T10:20:43.120Z,1392
2016-09-26T10:21:43.180Z,1596
2016-09-26T10:22:43.216Z,1664
2016-09-26T10:23:43.282Z,1664
2016-09-26T10:24:43.356Z,1588
2016-09-26T10:25:43.393Z,1576
2016-09-26T10:26:43.471Z,1580
2016-09-26T10:27:43.518Z,1576
2016-09-26T10:28:43.569Z,1580
2016-09-26T10:29:43.610Z,1596
2016-09-26T10:30:43.665Z,1588
2016-09-26T10:31:43.716Z,1584
2016-09-26T10:32:43.772Z,1600
2016-09-26T10:33:43.860Z,1600
2016-09-26T10:34:43.905Z,1600
2016-09-26T10:35:44.255Z,1604
2016-09-26T10:36:44.014Z,1604
2016-09-26T10:37:44.055Z,1608
2016-09-26T10:38:44.129Z,1608
2016-09-26T10:39:44.295Z,1608
2016-09-26T10:40:44.222Z,1608
2016-09-26T10:41:44.297Z,1612
2016-09-26T10:42:44.331Z,1620
2016-09-26T10:43:44.400Z,1616
2016-09-26T10:44:44.468Z,1620
2016-09-26T10:45:44.532Z,1620
2016-09-26T10:46:44.573Z,1628
2016-09-26T10:47:44.645Z,1624
2016-09-26T10:48:44.689Z,1624
2016-09-26T10:49:44.750Z,1624
2016-09-26T10:50:44.801Z,1620
2016-09-26T10:51:44.857Z,1628
2016-09-26T10:52:44.937Z,1636
2016-09-26T10:53:44.951Z,1664
2016-09-26T10:54:45.044Z,1704
2016-09-26T10:55:45.087Z,1680
2016-09-26T10:56:45.150Z,1660
2016-09-26T10:57:45.199Z,1652
2016-09-26T10:58:45.241Z,1728
2016-09-26T10:59:45.319Z,1820
2016-09-26T11:00:45.365Z,1808
2016-09-26T11:01:45.405Z,1864
2016-09-26T11:02:45.496Z,2064
2016-09-26T11:03:45.529Z,2036
2016-09-26T11:04:45.587Z,1944
2016-09-26T11:05:45.628Z,2128
2016-09-26T11:06:45.712Z,1992
2016-09-26T11:07:45.774Z,1892
2016-09-26T11:08:45.830Z,1904
2016-09-26T11:09:45.864Z,1976
2016-09-26T11:10:45.933Z,1968
2016-09-26T11:11:45.966Z,2048
2016-09-26T11:12:46.043Z,2148
2016-09-26T11:13:46.114Z,2288
2016-09-26T11:14:46.163Z,1260
2016-09-26T11:15:46.218Z,1348
2016-09-26T11:16:46.264Z,2452
2016-09-26T11:17:46.318Z,1168
2016-09-26T11:18:46.378Z,1224
2016-09-26T11:19:46.430Z,1488
2016-09-26T11:20:46.478Z,1476
2016-09-26T11:21:46.549Z,2672
2016-09-26T11:22:46.600Z,2620
2016-09-26T11:23:46.660Z,1688
2016-09-26T11:24:46.725Z,1796
2016-09-26T11:25:46.773Z,2872
2016-09-26T11:26:46.837Z,1772
2016-09-26T11:27:46.884Z,1600
2016-09-26T11:28:46.943Z,1332
2016-09-26T11:29:47.011Z,1328
2016-09-26T11:30:47.060Z,1572
2016-09-26T11:31:47.089Z,1436
2016-09-26T11:32:47.157Z,1400
2016-09-26T11:33:47.212Z,1332
2016-09-26T11:34:47.292Z,1216
2016-09-26T11:35:47.333Z,1120
2016-09-26T11:36:47.399Z,1152
2016-09-26T11:37:47.440Z,1252
2016-09-26T11:38:47.504Z,1624
2016-09-26T11:39:47.546Z,1468
2016-09-26T11:40:47.609Z,1208
2016-09-26T11:41:47.665Z,1280
2016-09-26T11:42:47.735Z,1032
2016-09-26T11:43:47.790Z,2340
2016-09-26T11:44:47.834Z,1188
2016-09-26T11:45:47.897Z,2104
2016-09-26T11:46:47.950Z,1236
2016-09-26T11:47:47.995Z,932
2016-09-26T11:48:48.057Z,1280
2016-09-26T11:49:48.129Z,1540
2016-09-26T11:50:48.159Z,1292
2016-09-26T11:51:48.227Z,928
2016-09-26T11:52:48.303Z,688
2016-09-26T11:53:48.337Z,688
2016-09-26T11:54:48.394Z,936
2016-09-26T11:55:48.452Z,1300
2016-09-26T11:56:48.520Z,1428
2016-09-26T11:57:48.580Z,1272
2016-09-26T11:58:48.619Z,1824
2016-09-26T11:59:48.674Z,1684
2016-09-26T12:00:48.729Z,1404
2016-09-26T12:01:48.795Z,1112
2016-09-26T12:02:48.851Z,1088
2016-09-26T12:03:48.912Z,984
2016-09-26T12:04:48.956Z,876
2016-09-26T12:05:49.021Z,844
2016-09-26T12:06:49.056Z,828
2016-09-26T12:07:49.120Z,804
2016-09-26T12:08:49.176Z,820
2016-09-26T12:09:49.547Z,1040
2016-09-26T12:10:49.307Z,1136
2016-09-26T12:11:49.367Z,948
2016-09-26T12:12:49.402Z,836
2016-09-26T12:13:49.450Z,732
2016-09-26T12:14:49.521Z,672
2016-09-26T12:15:49.586Z,788
2016-09-26T12:16:49.649Z,1704
2016-09-26T12:17:49.702Z,1128
2016-09-26T12:18:49.727Z,3312
2016-09-26T12:19:49.795Z,3284
2016-09-26T12:20:49.874Z,1396
2016-09-26T12:21:49.893Z,2232
2016-09-26T12:22:49.972Z,1236
2016-09-26T12:23:50.029Z,676
2016-09-26T12:24:50.086Z,732
2016-09-26T12:25:50.136Z,776
2016-09-26T12:26:50.304Z,824
2016-09-26T12:27:50.240Z,860
2016-09-26T12:28:50.285Z,832
2016-09-26T12:29:50.342Z,888
2016-09-26T12:30:50.420Z,852
2016-09-26T12:31:50.463Z,1092
2016-09-26T12:32:50.540Z,28800
2016-09-26T12:33:50.579Z,1020
2016-09-26T12:34:50.640Z,604
2016-09-26T12:35:50.710Z,608
2016-09-26T12:36:50.742Z,656
2016-09-26T12:37:50.806Z,640
2016-09-26T12:38:50.854Z,688
2016-09-26T12:39:50.929Z,740
2016-09-26T12:40:50.957Z,828
2016-09-26T12:41:51.033Z,896
2016-09-26T12:42:51.087Z,968
2016-09-26T12:44:51.207Z,1168
2016-09-26T12:45:51.238Z,908
2016-09-26T12:46:51.326Z,712
2016-09-26T12:47:51.383Z,668
2016-09-26T12:48:51.413Z,736
2016-09-26T12:49:51.482Z,776
2016-09-26T12:50:51.528Z,760
2016-09-26T12:51:51.577Z,724
2016-09-26T12:52:51.640Z,712
2016-09-26T12:53:51.685Z,720
2016-09-26T12:54:51.758Z,664
2016-09-26T12:55:51.850Z,680
2016-09-26T12:56:51.865Z,696
2016-09-26T12:57:51.910Z,716
2016-09-26T12:58:51.995Z,680
2016-09-26T12:59:52.029Z,720
2016-09-26T13:00:52.085Z,680
2016-09-26T13:01:52.156Z,632
2016-09-26T13:02:52.184Z,584
2016-09-26T13:03:52.275Z,652
2016-09-26T13:04:52.323Z,752
2016-09-26T13:05:52.362Z,724
2016-09-26T13:06:52.420Z,704
2016-09-26T13:07:52.482Z,740
2016-09-26T13:08:52.534Z,908
2016-09-26T13:09:52.573Z,900
2016-09-26T13:10:52.625Z,596
2016-09-26T13:11:52.711Z,508
2016-09-26T13:12:52.965Z,564
2016-09-26T13:13:52.829Z,552
2016-09-26T13:14:52.862Z,664
2016-09-26T13:15:52.939Z,652
2016-09-26T13:16:52.994Z,508
2016-09-26T13:17:53.199Z,520
2016-09-26T13:18:53.100Z,508
2016-09-26T13:19:53.146Z,512
2016-09-26T13:20:53.204Z,544
2016-09-26T13:21:53.252Z,452
2016-09-26T13:22:53.333Z,456
2016-09-26T13:23:53.388Z,480
2016-09-26T13:24:53.416Z,484
2016-09-26T13:25:53.460Z,500
2016-09-26T13:26:53.519Z,532
2016-09-26T13:27:53.605Z,556
2016-09-26T13:28:53.644Z,520
2016-09-26T13:29:53.692Z,580
2016-09-26T13:30:53.774Z,528
2016-09-26T13:31:53.806Z,584
2016-09-26T13:32:53.881Z,600
2016-09-26T13:33:53.920Z,548
2016-09-26T13:34:53.979Z,508
2016-09-26T13:35:54.027Z,444
2016-09-26T13:36:54.098Z,416
2016-09-26T13:37:54.140Z,436
2016-09-26T13:38:54.216Z,524
2016-09-26T13:39:54.271Z,548
2016-09-26T13:40:54.314Z,496
2016-09-26T13:41:54.376Z,516
2016-09-26T13:42:54.403Z,468
2016-09-26T13:43:54.457Z,460
2016-09-26T13:44:54.529Z,512
2016-09-26T13:45:54.584Z,496
2016-09-26T13:46:54.622Z,524
2016-09-26T13:47:54.688Z,508
2016-09-26T13:48:54.757Z,496
2016-09-26T13:49:54.789Z,508
2016-09-26T13:50:54.849Z,540
2016-09-26T13:51:54.905Z,580
2016-09-26T13:52:55.007Z,492
2016-09-26T13:53:55.051Z,428
2016-09-26T13:54:55.093Z,392
2016-09-26T13:55:55.157Z,368
2016-09-26T13:56:55.519Z,392
2016-09-26T13:57:55.276Z,404